Nagano, Japan

7:56 PM JST on August 21, 2014 (GMT +0900)
Toyama | Change Station
CLOSE
Current Station
Airport
Location: Toyama Airport,
Elevation: 89 ft
Nearby Weather Stations

Elev 89 ft 36.65 °N, 137.19 °E | Updated 56 minutes ago

Mostly Cloudy
Mostly Cloudy
84 °F
Feels Like 92 °F
N
2
Wind Variable Wind from Variable

Today
High -- | Low -- °F
--% Chance of Precip.
Yesterday
High -- | Low -- °F
Precip. -- in
5:08 AM 6:31 PM
Waning Crescent, 15% visible
Pressure 29.86 in
Visibility 6.2 miles
Clouds Few 3000 ft
Mostly Cloudy 15000 ft
Heat Index 92 °F
Dew Point 75 °F
Humidity 74%
Rainfall 0.00 in
Snow Depth Not available.
UV 0 out of 12
Pollen Not available.
Air Quality Not available.
Flu Activity Not available.
METAR RJNT 211000Z VRB02KT 9999 FEW030 BKN150 29/24 Q1011

More Conditions Fewer Conditions

Pressure 29.86 in
Visibility 6.2 miles
Clouds Few 3000 ft
Mostly Cloudy 15000 ft
Heat Index 92 °F
Dew Point 75 °F
Humidity 74%
Rainfall 0.00 in
Snow Depth Not available.
UV 0 out of 12
Pollen Not available.
Air Quality Not available.
Flu Activity Not available.
METAR RJNT 211000Z VRB02KT 9999 FEW030 BKN150 29/24 Q1011

More Conditions Fewer Conditions

10-Day Weather Forecast

Almanac

Astronomy

Aug. 21, 2014 Rise Set
Actual Time 5:08 AM JST 6:31 PM JST
Civil Twilight 4:41 AM JST 6:58 PM JST
Nautical Twilight 4:09 AM JST 7:30 PM JST
Astronomical Twilight 3:35 AM JST 8:04 PM JST
Moon 1:09 AM JST 3:30 PM JST
Length of Visible Light 14h 16m
Length of Day
13h 22m
Tomorrow will be 2m 8s shorter.
Waning Crescent, 15% of the Moon is Illuminated
Today
Waning Crescent
Aug 25
New
Sep 2
First Quarter
Sep 8
Full
Sep 15
Last Quarter

Yesterday's Extremes

Country Highs Country Lows

Community

WunderPhotos

Upload Photos

1,745,871 photos uploaded!

Nearby

Snow Depth

Not available.

Earthquake Activity

City Distance Mag. Time & Date
No recent earthquake activity has been reported nearby.
Minimum magnitude displayed is 2.5.

Coastal Water Temperatures

Place Temperature
No Stations Reporting

Nearby Weather Stations